sensor_id;sensor_type;location;lat;lon;timestamp;P1;durP1;ratioP1;P2;durP2;ratioP2
33593;SDS011;19920;52.242;20.940;2023-03-01T00:02:04;72.75;;;34.30;;
33593;SDS011;19920;52.242;20.940;2023-03-01T00:04:31;76.10;;;34.38;;
33593;SDS011;19920;52.242;20.940;2023-03-01T00:06:57;78.32;;;35.00;;
33593;SDS011;19920;52.242;20.940;2023-03-01T00:09:22;80.18;;;35.90;;
33593;SDS011;19920;52.242;20.940;2023-03-01T00:11:48;87.22;;;36.63;;
33593;SDS011;19920;52.242;20.940;2023-03-01T00:14:14;75.65;;;36.13;;
33593;SDS011;19920;52.242;20.940;2023-03-01T00:16:42;71.90;;;35.13;;
33593;SDS011;19920;52.242;20.940;2023-03-01T00:19:09;79.97;;;36.63;;
33593;SDS011;19920;52.242;20.940;2023-03-01T00:21:38;81.97;;;35.50;;
33593;SDS011;19920;52.242;20.940;2023-03-01T00:24:04;80.78;;;34.92;;
33593;SDS011;19920;52.242;20.940;2023-03-01T00:26:30;79.22;;;35.25;;
33593;SDS011;19920;52.242;20.940;2023-03-01T00:28:56;78.82;;;35.40;;
33593;SDS011;19920;52.242;20.940;2023-03-01T00:31:23;81.15;;;36.30;;
33593;SDS011;19920;52.242;20.940;2023-03-01T00:33:52;75.75;;;34.47;;
33593;SDS011;19920;52.242;20.940;2023-03-01T00:36:22;80.75;;;36.40;;
33593;SDS011;19920;52.242;20.940;2023-03-01T00:38:49;78.85;;;35.35;;
33593;SDS011;19920;52.242;20.940;2023-03-01T00:41:15;75.22;;;35.10;;
33593;SDS011;19920;52.242;20.940;2023-03-01T00:43:42;84.20;;;36.83;;
33593;SDS011;19920;52.242;20.940;2023-03-01T00:46:10;71.72;;;34.15;;
33593;SDS011;19920;52.242;20.940;2023-03-01T00:48:38;78.93;;;36.35;;
33593;SDS011;19920;52.242;20.940;2023-03-01T00:51:07;78.22;;;35.47;;
33593;SDS011;19920;52.242;20.940;2023-03-01T00:53:41;73.43;;;33.58;;
33593;SDS011;19920;52.242;20.940;2023-03-01T00:56:07;77.97;;;36.10;;
33593;SDS011;19920;52.242;20.940;2023-03-01T00:58:34;77.05;;;35.90;;
33593;SDS011;19920;52.242;20.940;2023-03-01T01:01:01;79.32;;;35.40;;
33593;SDS011;19920;52.242;20.940;2023-03-01T01:03:41;82.47;;;35.42;;
33593;SDS011;19920;52.242;20.940;2023-03-01T01:06:18;72.25;;;33.15;;
33593;SDS011;19920;52.242;20.940;2023-03-01T01:08:49;76.35;;;35.67;;
33593;SDS011;19920;52.242;20.940;2023-03-01T01:11:16;76.93;;;34.88;;
33593;SDS011;19920;52.242;20.940;2023-03-01T01:13:43;73.40;;;34.83;;
33593;SDS011;19920;52.242;20.940;2023-03-01T01:16:10;80.80;;;35.28;;
33593;SDS011;19920;52.242;20.940;2023-03-01T01:18:36;76.00;;;35.47;;
33593;SDS011;19920;52.242;20.940;2023-03-01T01:21:08;79.07;;;35.63;;
33593;SDS011;19920;52.242;20.940;2023-03-01T01:23:37;75.18;;;34.20;;
33593;SDS011;19920;52.242;20.940;2023-03-01T01:26:07;75.68;;;35.58;;
33593;SDS011;19920;52.242;20.940;2023-03-01T01:28:34;76.28;;;33.53;;
33593;SDS011;19920;52.242;20.940;2023-03-01T01:31:01;76.85;;;35.28;;
33593;SDS011;19920;52.242;20.940;2023-03-01T01:33:27;75.93;;;34.38;;
33593;SDS011;19920;52.242;20.940;2023-03-01T01:35:52;77.30;;;34.80;;
33593;SDS011;19920;52.242;20.940;2023-03-01T01:38:18;74.30;;;35.13;;
33593;SDS011;19920;52.242;20.940;2023-03-01T01:40:44;75.80;;;35.60;;
33593;SDS011;19920;52.242;20.940;2023-03-01T01:43:24;74.93;;;34.13;;
33593;SDS011;19920;52.242;20.940;2023-03-01T01:45:55;75.32;;;34.90;;
33593;SDS011;19920;52.242;20.940;2023-03-01T01:48:26;79.82;;;35.42;;
33593;SDS011;19920;52.242;20.940;2023-03-01T01:51:05;71.57;;;33.65;;
33593;SDS011;19920;52.242;20.940;2023-03-01T01:53:35;76.70;;;35.42;;
33593;SDS011;19920;52.242;20.940;2023-03-01T01:56:02;77.13;;;34.90;;
33593;SDS011;19920;52.242;20.940;2023-03-01T01:58:32;82.78;;;35.55;;
33593;SDS011;19920;52.242;20.940;2023-03-01T02:00:58;80.32;;;35.20;;
33593;SDS011;19920;52.242;20.940;2023-03-01T02:03:27;74.40;;;34.95;;
33593;SDS011;19920;52.242;20.940;2023-03-01T02:06:04;76.88;;;34.88;;
33593;SDS011;19920;52.242;20.940;2023-03-01T02:08:36;78.47;;;34.20;;
33593;SDS011;19920;52.242;20.940;2023-03-01T02:11:04;76.10;;;33.08;;
33593;SDS011;19920;52.242;20.940;2023-03-01T02:13:31;75.38;;;33.78;;
33593;SDS011;19920;52.242;20.940;2023-03-01T02:15:58;72.57;;;33.33;;
33593;SDS011;19920;52.242;20.940;2023-03-01T02:18:27;74.60;;;33.65;;
33593;SDS011;19920;52.242;20.940;2023-03-01T02:23:42;71.95;;;33.83;;
33593;SDS011;19920;52.242;20.940;2023-03-01T02:28:40;68.15;;;32.53;;
33593;SDS011;19920;52.242;20.940;2023-03-01T02:31:08;72.78;;;33.22;;
33593;SDS011;19920;52.242;20.940;2023-03-01T02:33:54;69.53;;;33.58;;
33593;SDS011;19920;52.242;20.940;2023-03-01T02:36:28;74.72;;;34.53;;
33593;SDS011;19920;52.242;20.940;2023-03-01T02:38:57;69.18;;;33.92;;
33593;SDS011;19920;52.242;20.940;2023-03-01T02:41:26;70.15;;;33.25;;
33593;SDS011;19920;52.242;20.940;2023-03-01T02:43:55;74.90;;;33.95;;
33593;SDS011;19920;52.242;20.940;2023-03-01T02:46:23;72.32;;;33.25;;
33593;SDS011;19920;52.242;20.940;2023-03-01T02:48:51;73.55;;;34.72;;
33593;SDS011;19920;52.242;20.940;2023-03-01T02:56:18;73.00;;;33.72;;
33593;SDS011;19920;52.242;20.940;2023-03-01T02:58:44;73.82;;;33.50;;
33593;SDS011;19920;52.242;20.940;2023-03-01T03:01:13;72.32;;;33.40;;
33593;SDS011;19920;52.242;20.940;2023-03-01T03:03:40;80.32;;;35.80;;
33593;SDS011;19920;52.242;20.940;2023-03-01T03:06:06;77.68;;;34.85;;
33593;SDS011;19920;52.242;20.940;2023-03-01T03:08:31;76.38;;;34.15;;
33593;SDS011;19920;52.242;20.940;2023-03-01T03:10:57;75.32;;;33.55;;
33593;SDS011;19920;52.242;20.940;2023-03-01T03:13:23;67.82;;;32.95;;
33593;SDS011;19920;52.242;20.940;2023-03-01T03:18:22;77.32;;;32.88;;
33593;SDS011;19920;52.242;20.940;2023-03-01T03:20:50;77.77;;;33.60;;
33593;SDS011;19920;52.242;20.940;2023-03-01T03:23:19;73.28;;;33.33;;
33593;SDS011;19920;52.242;20.940;2023-03-01T03:25:47;76.10;;;33.75;;
33593;SDS011;19920;52.242;20.940;2023-03-01T03:28:14;65.38;;;30.85;;
33593;SDS011;19920;52.242;20.940;2023-03-01T03:30:40;69.78;;;32.03;;
33593;SDS011;19920;52.242;20.940;2023-03-01T03:33:07;66.38;;;32.17;;
33593;SDS011;19920;52.242;20.940;2023-03-01T03:35:39;71.88;;;33.45;;
33593;SDS011;19920;52.242;20.940;2023-03-01T03:38:10;72.32;;;33.28;;
33593;SDS011;19920;52.242;20.940;2023-03-01T03:40:48;70.13;;;32.60;;
33593;SDS011;19920;52.242;20.940;2023-03-01T03:43:16;70.63;;;32.75;;
33593;SDS011;19920;52.242;20.940;2023-03-01T03:45:47;75.82;;;34.13;;
33593;SDS011;19920;52.242;20.940;2023-03-01T03:48:15;72.07;;;31.40;;
33593;SDS011;19920;52.242;20.940;2023-03-01T03:50:41;75.30;;;33.58;;
33593;SDS011;19920;52.242;20.940;2023-03-01T03:53:12;77.68;;;32.53;;
33593;SDS011;19920;52.242;20.940;2023-03-01T03:55:37;74.72;;;33.47;;
33593;SDS011;19920;52.242;20.940;2023-03-01T03:58:04;74.25;;;33.70;;
33593;SDS011;19920;52.242;20.940;2023-03-01T04:00:31;74.28;;;34.28;;
33593;SDS011;19920;52.242;20.940;2023-03-01T04:02:59;79.32;;;34.85;;
33593;SDS011;19920;52.242;20.940;2023-03-01T04:05:26;75.68;;;34.78;;
33593;SDS011;19920;52.242;20.940;2023-03-01T04:07:52;81.70;;;34.47;;
33593;SDS011;19920;52.242;20.940;2023-03-01T04:10:26;73.80;;;33.92;;
33593;SDS011;19920;52.242;20.940;2023-03-01T04:12:53;71.07;;;33.30;;
33593;SDS011;19920;52.242;20.940;2023-03-01T04:15:21;73.30;;;33.17;;
33593;SDS011;19920;52.242;20.940;2023-03-01T04:17:49;73.32;;;34.50;;
33593;SDS011;19920;52.242;20.940;2023-03-01T04:20:18;78.82;;;34.35;;
33593;SDS011;19920;52.242;20.940;2023-03-01T04:25:18;74.85;;;35.17;;
33593;SDS011;19920;52.242;20.940;2023-03-01T04:27:44;74.90;;;33.42;;
33593;SDS011;19920;52.242;20.940;2023-03-01T04:30:10;69.93;;;35.13;;
33593;SDS011;19920;52.242;20.940;2023-03-01T04:32:36;72.40;;;34.30;;
33593;SDS011;19920;52.242;20.940;2023-03-01T04:35:01;75.28;;;34.00;;
33593;SDS011;19920;52.242;20.940;2023-03-01T04:37:27;75.63;;;34.17;;
33593;SDS011;19920;52.242;20.940;2023-03-01T04:39:54;75.43;;;33.83;;
33593;SDS011;19920;52.242;20.940;2023-03-01T04:42:20;72.90;;;35.33;;
33593;SDS011;19920;52.242;20.940;2023-03-01T04:44:45;72.03;;;32.47;;
33593;SDS011;19920;52.242;20.940;2023-03-01T04:47:11;69.80;;;32.20;;
33593;SDS011;19920;52.242;20.940;2023-03-01T04:49:37;79.60;;;33.78;;
33593;SDS011;19920;52.242;20.940;2023-03-01T04:52:03;69.50;;;32.25;;
33593;SDS011;19920;52.242;20.940;2023-03-01T04:54:33;71.63;;;33.00;;
33593;SDS011;19920;52.242;20.940;2023-03-01T04:56:59;67.90;;;32.17;;
33593;SDS011;19920;52.242;20.940;2023-03-01T04:59:26;77.30;;;33.13;;
33593;SDS011;19920;52.242;20.940;2023-03-01T05:01:53;71.05;;;32.65;;
33593;SDS011;19920;52.242;20.940;2023-03-01T05:04:25;71.28;;;32.20;;
33593;SDS011;19920;52.242;20.940;2023-03-01T05:06:51;76.75;;;34.08;;
33593;SDS011;19920;52.242;20.940;2023-03-01T05:09:18;76.90;;;33.22;;
33593;SDS011;19920;52.242;20.940;2023-03-01T05:11:44;70.00;;;33.25;;
33593;SDS011;19920;52.242;20.940;2023-03-01T05:14:10;72.25;;;32.22;;
33593;SDS011;19920;52.242;20.940;2023-03-01T05:16:36;69.78;;;32.20;;
33593;SDS011;19920;52.242;20.940;2023-03-01T05:19:02;76.70;;;33.72;;
33593;SDS011;19920;52.242;20.940;2023-03-01T05:21:40;71.22;;;33.67;;
33593;SDS011;19920;52.242;20.940;2023-03-01T05:24:25;70.47;;;31.60;;
33593;SDS011;19920;52.242;20.940;2023-03-01T05:26:51;73.18;;;33.25;;
33593;SDS011;19920;52.242;20.940;2023-03-01T05:29:21;69.53;;;33.13;;
33593;SDS011;19920;52.242;20.940;2023-03-01T05:31:57;74.15;;;33.78;;
33593;SDS011;19920;52.242;20.940;2023-03-01T05:34:28;72.35;;;33.35;;
33593;SDS011;19920;52.242;20.940;2023-03-01T05:36:55;73.75;;;33.33;;
33593;SDS011;19920;52.242;20.940;2023-03-01T05:39:22;69.72;;;32.55;;
33593;SDS011;19920;52.242;20.940;2023-03-01T05:41:57;72.85;;;33.85;;
33593;SDS011;19920;52.242;20.940;2023-03-01T05:44:24;73.32;;;32.72;;
33593;SDS011;19920;52.242;20.940;2023-03-01T05:46:51;65.43;;;30.73;;
33593;SDS011;19920;52.242;20.940;2023-03-01T05:49:17;77.38;;;33.80;;
33593;SDS011;19920;52.242;20.940;2023-03-01T05:51:43;78.45;;;34.40;;
33593;SDS011;19920;52.242;20.940;2023-03-01T05:54:13;68.95;;;31.67;;
33593;SDS011;19920;52.242;20.940;2023-03-01T05:56:39;75.13;;;32.33;;
33593;SDS011;19920;52.242;20.940;2023-03-01T05:59:05;69.80;;;32.10;;
33593;SDS011;19920;52.242;20.940;2023-03-01T06:01:32;77.32;;;34.13;;
33593;SDS011;19920;52.242;20.940;2023-03-01T06:03:58;64.88;;;31.77;;
33593;SDS011;19920;52.242;20.940;2023-03-01T06:06:24;70.25;;;32.35;;
33593;SDS011;19920;52.242;20.940;2023-03-01T06:08:50;66.93;;;31.15;;
33593;SDS011;19920;52.242;20.940;2023-03-01T06:11:17;70.70;;;31.33;;
33593;SDS011;19920;52.242;20.940;2023-03-01T06:13:43;72.28;;;33.38;;
33593;SDS011;19920;52.242;20.940;2023-03-01T06:16:09;65.10;;;30.42;;
33593;SDS011;19920;52.242;20.940;2023-03-01T06:18:36;69.03;;;32.08;;
33593;SDS011;19920;52.242;20.940;2023-03-01T06:21:02;67.65;;;31.08;;
33593;SDS011;19920;52.242;20.940;2023-03-01T06:23:28;70.30;;;31.33;;
33593;SDS011;19920;52.242;20.940;2023-03-01T06:25:54;68.28;;;31.90;;
33593;SDS011;19920;52.242;20.940;2023-03-01T06:28:20;69.05;;;31.27;;
33593;SDS011;19920;52.242;20.940;2023-03-01T06:30:45;70.13;;;30.73;;
33593;SDS011;19920;52.242;20.940;2023-03-01T06:33:11;64.28;;;31.38;;
33593;SDS011;19920;52.242;20.940;2023-03-01T06:35:38;65.88;;;29.85;;
33593;SDS011;19920;52.242;20.940;2023-03-01T06:38:03;69.68;;;31.00;;
33593;SDS011;19920;52.242;20.940;2023-03-01T06:40:29;64.68;;;29.75;;
33593;SDS011;19920;52.242;20.940;2023-03-01T06:42:56;72.18;;;29.60;;
33593;SDS011;19920;52.242;20.940;2023-03-01T06:45:22;62.72;;;29.58;;
33593;SDS011;19920;52.242;20.940;2023-03-01T06:47:48;63.22;;;29.25;;
33593;SDS011;19920;52.242;20.940;2023-03-01T06:50:14;69.80;;;31.27;;
33593;SDS011;19920;52.242;20.940;2023-03-01T06:52:41;66.78;;;29.88;;
33593;SDS011;19920;52.242;20.940;2023-03-01T06:55:08;66.00;;;29.20;;
33593;SDS011;19920;52.242;20.940;2023-03-01T06:57:34;66.10;;;29.63;;
33593;SDS011;19920;52.242;20.940;2023-03-01T07:00:00;63.53;;;30.60;;
33593;SDS011;19920;52.242;20.940;2023-03-01T07:02:26;62.50;;;30.20;;
33593;SDS011;19920;52.242;20.940;2023-03-01T07:04:51;67.50;;;29.83;;
33593;SDS011;19920;52.242;20.940;2023-03-01T07:07:17;64.53;;;30.17;;
33593;SDS011;19920;52.242;20.940;2023-03-01T07:09:46;59.75;;;28.45;;
33593;SDS011;19920;52.242;20.940;2023-03-01T07:12:13;56.72;;;28.45;;
33593;SDS011;19920;52.242;20.940;2023-03-01T07:14:39;61.55;;;28.52;;
33593;SDS011;19920;52.242;20.940;2023-03-01T07:17:05;61.72;;;28.52;;
33593;SDS011;19920;52.242;20.940;2023-03-01T07:19:31;58.33;;;27.85;;
33593;SDS011;19920;52.242;20.940;2023-03-01T07:21:57;60.95;;;29.23;;
33593;SDS011;19920;52.242;20.940;2023-03-01T07:24:22;58.30;;;28.58;;
33593;SDS011;19920;52.242;20.940;2023-03-01T07:26:51;53.90;;;28.42;;
33593;SDS011;19920;52.242;20.940;2023-03-01T07:29:17;62.72;;;28.55;;
33593;SDS011;19920;52.242;20.940;2023-03-01T07:31:43;56.60;;;27.77;;
33593;SDS011;19920;52.242;20.940;2023-03-01T07:34:09;57.55;;;28.52;;
33593;SDS011;19920;52.242;20.940;2023-03-01T07:36:35;52.90;;;27.05;;
33593;SDS011;19920;52.242;20.940;2023-03-01T07:39:01;64.30;;;26.95;;
33593;SDS011;19920;52.242;20.940;2023-03-01T07:41:28;57.25;;;26.90;;
33593;SDS011;19920;52.242;20.940;2023-03-01T07:43:54;52.42;;;26.58;;
33593;SDS011;19920;52.242;20.940;2023-03-01T07:46:20;66.22;;;26.23;;
33593;SDS011;19920;52.242;20.940;2023-03-01T07:48:45;57.22;;;27.63;;
33593;SDS011;19920;52.242;20.940;2023-03-01T07:51:11;53.67;;;26.77;;
33593;SDS011;19920;52.242;20.940;2023-03-01T07:53:37;57.13;;;26.85;;
33593;SDS011;19920;52.242;20.940;2023-03-01T07:56:07;54.25;;;26.63;;
33593;SDS011;19920;52.242;20.940;2023-03-01T07:58:34;60.72;;;27.42;;
33593;SDS011;19920;52.242;20.940;2023-03-01T08:01:04;52.47;;;26.27;;
33593;SDS011;19920;52.242;20.940;2023-03-01T08:03:32;52.40;;;26.13;;
33593;SDS011;19920;52.242;20.940;2023-03-01T08:05:59;54.25;;;26.35;;
33593;SDS011;19920;52.242;20.940;2023-03-01T08:08:25;51.53;;;24.98;;
33593;SDS011;19920;52.242;20.940;2023-03-01T08:10:51;55.42;;;25.95;;
33593;SDS011;19920;52.242;20.940;2023-03-01T08:13:17;53.55;;;25.88;;
33593;SDS011;19920;52.242;20.940;2023-03-01T08:15:47;54.13;;;26.40;;
33593;SDS011;19920;52.242;20.940;2023-03-01T08:18:14;51.75;;;25.25;;
33593;SDS011;19920;52.242;20.940;2023-03-01T08:20:41;51.50;;;25.60;;
33593;SDS011;19920;52.242;20.940;2023-03-01T08:23:06;49.85;;;25.58;;
33593;SDS011;19920;52.242;20.940;2023-03-01T08:25:32;52.47;;;26.10;;
33593;SDS011;19920;52.242;20.940;2023-03-01T08:27:58;57.40;;;26.95;;
33593;SDS011;19920;52.242;20.940;2023-03-01T08:30:23;50.95;;;25.60;;
33593;SDS011;19920;52.242;20.940;2023-03-01T08:32:49;55.88;;;25.10;;
33593;SDS011;19920;52.242;20.940;2023-03-01T08:35:16;50.50;;;25.88;;
33593;SDS011;19920;52.242;20.940;2023-03-01T08:37:42;49.90;;;25.20;;
33593;SDS011;19920;52.242;20.940;2023-03-01T08:40:07;46.28;;;24.75;;
33593;SDS011;19920;52.242;20.940;2023-03-01T08:42:35;44.10;;;24.08;;
33593;SDS011;19920;52.242;20.940;2023-03-01T08:45:01;45.67;;;24.65;;
33593;SDS011;19920;52.242;20.940;2023-03-01T08:47:27;48.30;;;24.55;;
33593;SDS011;19920;52.242;20.940;2023-03-01T08:49:53;46.63;;;24.13;;
33593;SDS011;19920;52.242;20.940;2023-03-01T08:52:19;46.70;;;24.52;;
33593;SDS011;19920;52.242;20.940;2023-03-01T08:54:47;45.80;;;23.70;;
33593;SDS011;19920;52.242;20.940;2023-03-01T08:57:13;43.05;;;23.20;;
33593;SDS011;19920;52.242;20.940;2023-03-01T08:59:39;45.15;;;23.33;;
33593;SDS011;19920;52.242;20.940;2023-03-01T09:02:08;44.80;;;23.55;;
33593;SDS011;19920;52.242;20.940;2023-03-01T09:04:37;43.25;;;23.25;;
33593;SDS011;19920;52.242;20.940;2023-03-01T09:07:03;47.42;;;24.08;;
33593;SDS011;19920;52.242;20.940;2023-03-01T09:09:29;39.03;;;22.00;;
33593;SDS011;19920;52.242;20.940;2023-03-01T09:11:54;42.40;;;22.45;;
33593;SDS011;19920;52.242;20.940;2023-03-01T09:14:20;38.83;;;21.40;;
33593;SDS011;19920;52.242;20.940;2023-03-01T09:16:45;40.20;;;21.75;;
33593;SDS011;19920;52.242;20.940;2023-03-01T09:19:12;43.05;;;23.00;;
33593;SDS011;19920;52.242;20.940;2023-03-01T09:21:38;42.28;;;23.58;;
33593;SDS011;19920;52.242;20.940;2023-03-01T09:24:04;44.00;;;23.10;;
33593;SDS011;19920;52.242;20.940;2023-03-01T09:26:37;41.15;;;21.67;;
33593;SDS011;19920;52.242;20.940;2023-03-01T09:29:03;43.05;;;21.40;;
33593;SDS011;19920;52.242;20.940;2023-03-01T09:31:28;42.88;;;20.17;;
33593;SDS011;19920;52.242;20.940;2023-03-01T09:33:54;41.72;;;22.73;;
33593;SDS011;19920;52.242;20.940;2023-03-01T09:36:20;42.75;;;22.67;;
33593;SDS011;19920;52.242;20.940;2023-03-01T09:38:48;38.03;;;21.35;;
33593;SDS011;19920;52.242;20.940;2023-03-01T09:43:52;41.72;;;22.48;;
33593;SDS011;19920;52.242;20.940;2023-03-01T09:46:23;40.97;;;21.65;;
33593;SDS011;19920;52.242;20.940;2023-03-01T09:48:52;38.00;;;21.30;;
33593;SDS011;19920;52.242;20.940;2023-03-01T09:51:32;36.40;;;20.05;;
33593;SDS011;19920;52.242;20.940;2023-03-01T09:54:01;38.72;;;20.45;;
33593;SDS011;19920;52.242;20.940;2023-03-01T09:56:30;40.10;;;19.45;;
33593;SDS011;19920;52.242;20.940;2023-03-01T10:07:22;38.45;;;19.48;;
33593;SDS011;19920;52.242;20.940;2023-03-01T10:09:58;32.92;;;17.45;;
33593;SDS011;19920;52.242;20.940;2023-03-01T10:12:26;30.45;;;17.17;;
33593;SDS011;19920;52.242;20.940;2023-03-01T10:17:41;31.20;;;15.13;;
33593;SDS011;19920;52.242;20.940;2023-03-01T10:20:15;29.50;;;16.30;;
33593;SDS011;19920;52.242;20.940;2023-03-01T10:22:42;29.45;;;15.85;;
33593;SDS011;19920;52.242;20.940;2023-03-01T10:25:12;30.80;;;17.23;;
33593;SDS011;19920;52.242;20.940;2023-03-01T10:27:44;32.97;;;16.08;;
33593;SDS011;19920;52.242;20.940;2023-03-01T10:30:37;28.98;;;14.98;;
33593;SDS011;19920;52.242;20.940;2023-03-01T10:33:15;25.70;;;13.18;;
33593;SDS011;19920;52.242;20.940;2023-03-01T10:35:45;28.00;;;14.40;;
33593;SDS011;19920;52.242;20.940;2023-03-01T10:38:12;27.63;;;14.18;;
33593;SDS011;19920;52.242;20.940;2023-03-01T10:43:29;24.45;;;13.88;;
33593;SDS011;19920;52.242;20.940;2023-03-01T10:46:30;25.08;;;13.93;;
33593;SDS011;19920;52.242;20.940;2023-03-01T10:51:47;27.42;;;14.38;;
33593;SDS011;19920;52.242;20.940;2023-03-01T10:54:28;26.35;;;13.90;;
33593;SDS011;19920;52.242;20.940;2023-03-01T10:56:56;24.20;;;13.20;;
33593;SDS011;19920;52.242;20.940;2023-03-01T10:59:30;24.75;;;13.20;;
33593;SDS011;19920;52.242;20.940;2023-03-01T11:07:27;22.45;;;12.40;;
33593;SDS011;19920;52.242;20.940;2023-03-01T11:09:52;27.33;;;13.10;;
33593;SDS011;19920;52.242;20.940;2023-03-01T11:12:18;21.38;;;12.18;;
33593;SDS011;19920;52.242;20.940;2023-03-01T11:15:03;29.17;;;14.80;;
33593;SDS011;19920;52.242;20.940;2023-03-01T11:17:30;24.83;;;13.55;;
33593;SDS011;19920;52.242;20.940;2023-03-01T11:20:02;19.40;;;12.18;;
33593;SDS011;19920;52.242;20.940;2023-03-01T11:22:44;25.88;;;12.43;;
33593;SDS011;19920;52.242;20.940;2023-03-01T11:25:17;22.77;;;11.65;;
33593;SDS011;19920;52.242;20.940;2023-03-01T11:27:48;20.48;;;11.55;;
33593;SDS011;19920;52.242;20.940;2023-03-01T11:35:24;21.98;;;11.48;;
33593;SDS011;19920;52.242;20.940;2023-03-01T11:40:37;20.00;;;11.70;;
33593;SDS011;19920;52.242;20.940;2023-03-01T11:45:46;21.13;;;11.95;;
33593;SDS011;19920;52.242;20.940;2023-03-01T11:48:25;19.85;;;11.68;;
33593;SDS011;19920;52.242;20.940;2023-03-01T11:51:05;26.00;;;11.80;;
33593;SDS011;19920;52.242;20.940;2023-03-01T11:54:12;20.63;;;11.65;;
33593;SDS011;19920;52.242;20.940;2023-03-01T11:56:55;20.15;;;11.57;;
33593;SDS011;19920;52.242;20.940;2023-03-01T12:02:34;22.52;;;11.57;;
33593;SDS011;19920;52.242;20.940;2023-03-01T12:13:49;20.33;;;11.00;;
33593;SDS011;19920;52.242;20.940;2023-03-01T12:16:22;19.67;;;10.52;;
33593;SDS011;19920;52.242;20.940;2023-03-01T12:21:42;21.70;;;10.63;;
33593;SDS011;19920;52.242;20.940;2023-03-01T12:45:46;21.83;;;11.68;;
33593;SDS011;19920;52.242;20.940;2023-03-01T12:51:29;21.08;;;11.52;;
33593;SDS011;19920;52.242;20.940;2023-03-01T12:53:57;19.13;;;11.68;;
33593;SDS011;19920;52.242;20.940;2023-03-01T12:56:27;21.45;;;10.98;;
33593;SDS011;19920;52.242;20.940;2023-03-01T13:17:47;25.02;;;12.02;;
33593;SDS011;19920;52.242;20.940;2023-03-01T13:20:17;17.63;;;11.27;;
33593;SDS011;19920;52.242;20.940;2023-03-01T13:22:48;20.38;;;12.02;;
33593;SDS011;19920;52.242;20.940;2023-03-01T13:25:27;22.33;;;12.13;;
33593;SDS011;19920;52.242;20.940;2023-03-01T13:27:53;22.92;;;12.88;;
33593;SDS011;19920;52.242;20.940;2023-03-01T13:30:57;24.48;;;12.80;;
33593;SDS011;19920;52.242;20.940;2023-03-01T13:35:56;22.67;;;12.35;;
33593;SDS011;19920;52.242;20.940;2023-03-01T13:49:51;23.95;;;13.15;;
33593;SDS011;19920;52.242;20.940;2023-03-01T13:54:55;21.98;;;12.27;;
33593;SDS011;19920;52.242;20.940;2023-03-01T13:57:22;20.38;;;12.18;;
33593;SDS011;19920;52.242;20.940;2023-03-01T13:59:54;21.45;;;11.95;;
33593;SDS011;19920;52.242;20.940;2023-03-01T14:02:20;15.75;;;10.18;;
33593;SDS011;19920;52.242;20.940;2023-03-01T14:04:55;17.90;;;11.00;;
33593;SDS011;19920;52.242;20.940;2023-03-01T14:07:23;22.10;;;12.10;;
33593;SDS011;19920;52.242;20.940;2023-03-01T14:10:03;21.75;;;12.57;;
33593;SDS011;19920;52.242;20.940;2023-03-01T14:15:38;20.55;;;12.65;;
33593;SDS011;19920;52.242;20.940;2023-03-01T14:18:39;20.70;;;12.48;;
33593;SDS011;19920;52.242;20.940;2023-03-01T14:21:14;19.98;;;12.50;;
33593;SDS011;19920;52.242;20.940;2023-03-01T14:23:40;19.13;;;12.13;;
33593;SDS011;19920;52.242;20.940;2023-03-01T14:26:07;16.67;;;9.75;;
33593;SDS011;19920;52.242;20.940;2023-03-01T14:28:34;18.77;;;9.63;;
33593;SDS011;19920;52.242;20.940;2023-03-01T14:31:04;13.48;;;9.50;;
33593;SDS011;19920;52.242;20.940;2023-03-01T14:34:18;15.25;;;9.77;;
33593;SDS011;19920;52.242;20.940;2023-03-01T14:36:48;17.45;;;10.13;;
33593;SDS011;19920;52.242;20.940;2023-03-01T14:39:22;13.55;;;9.50;;
33593;SDS011;19920;52.242;20.940;2023-03-01T14:41:51;17.45;;;8.68;;
33593;SDS011;19920;52.242;20.940;2023-03-01T14:44:21;14.75;;;9.52;;
33593;SDS011;19920;52.242;20.940;2023-03-01T14:46:51;15.70;;;9.35;;
33593;SDS011;19920;52.242;20.940;2023-03-01T14:49:20;13.38;;;9.52;;
33593;SDS011;19920;52.242;20.940;2023-03-01T14:52:02;20.20;;;10.30;;
33593;SDS011;19920;52.242;20.940;2023-03-01T14:54:45;14.85;;;9.50;;
33593;SDS011;19920;52.242;20.940;2023-03-01T14:57:19;15.80;;;10.13;;
33593;SDS011;19920;52.242;20.940;2023-03-01T14:59:53;13.68;;;10.18;;
33593;SDS011;19920;52.242;20.940;2023-03-01T15:02:31;17.27;;;10.13;;
33593;SDS011;19920;52.242;20.940;2023-03-01T15:04:58;17.35;;;10.60;;
33593;SDS011;19920;52.242;20.940;2023-03-01T15:07:45;17.20;;;11.13;;
33593;SDS011;19920;52.242;20.940;2023-03-01T15:10:24;19.73;;;11.55;;
33593;SDS011;19920;52.242;20.940;2023-03-01T15:12:51;19.17;;;11.88;;
33593;SDS011;19920;52.242;20.940;2023-03-01T15:15:31;24.95;;;11.60;;
33593;SDS011;19920;52.242;20.940;2023-03-01T15:18:03;21.02;;;11.90;;
33593;SDS011;19920;52.242;20.940;2023-03-01T15:20:31;22.67;;;12.63;;
33593;SDS011;19920;52.242;20.940;2023-03-01T15:23:00;21.73;;;12.80;;
33593;SDS011;19920;52.242;20.940;2023-03-01T15:25:28;24.95;;;12.40;;
33593;SDS011;19920;52.242;20.940;2023-03-01T15:27:55;23.67;;;13.00;;
33593;SDS011;19920;52.242;20.940;2023-03-01T15:30:23;25.17;;;13.52;;
33593;SDS011;19920;52.242;20.940;2023-03-01T15:35:50;22.73;;;12.77;;
33593;SDS011;19920;52.242;20.940;2023-03-01T15:38:36;22.33;;;12.02;;
33593;SDS011;19920;52.242;20.940;2023-03-01T15:41:45;19.60;;;11.75;;
33593;SDS011;19920;52.242;20.940;2023-03-01T15:44:16;22.23;;;11.77;;
33593;SDS011;19920;52.242;20.940;2023-03-01T15:46:51;28.98;;;13.15;;
33593;SDS011;19920;52.242;20.940;2023-03-01T15:55:19;22.17;;;13.43;;
33593;SDS011;19920;52.242;20.940;2023-03-01T15:57:50;23.83;;;12.70;;
33593;SDS011;19920;52.242;20.940;2023-03-01T16:00:49;29.70;;;13.73;;
33593;SDS011;19920;52.242;20.940;2023-03-01T16:03:20;22.15;;;12.23;;
33593;SDS011;19920;52.242;20.940;2023-03-01T16:05:47;24.60;;;12.52;;
33593;SDS011;19920;52.242;20.940;2023-03-01T16:08:15;25.65;;;13.10;;
33593;SDS011;19920;52.242;20.940;2023-03-01T16:10:42;24.83;;;13.23;;
33593;SDS011;19920;52.242;20.940;2023-03-01T16:13:13;22.88;;;12.50;;
33593;SDS011;19920;52.242;20.940;2023-03-01T16:15:39;30.77;;;12.70;;
33593;SDS011;19920;52.242;20.940;2023-03-01T16:18:05;28.98;;;13.82;;
33593;SDS011;19920;52.242;20.940;2023-03-01T16:20:33;26.25;;;13.57;;
33593;SDS011;19920;52.242;20.940;2023-03-01T16:22:59;25.10;;;13.88;;
33593;SDS011;19920;52.242;20.940;2023-03-01T16:25:30;28.48;;;13.70;;
33593;SDS011;19920;52.242;20.940;2023-03-01T16:27:57;28.42;;;13.65;;
33593;SDS011;19920;52.242;20.940;2023-03-01T16:30:33;26.60;;;14.45;;
33593;SDS011;19920;52.242;20.940;2023-03-01T16:33:00;27.42;;;14.05;;
33593;SDS011;19920;52.242;20.940;2023-03-01T16:35:26;28.90;;;15.25;;
33593;SDS011;19920;52.242;20.940;2023-03-01T16:37:52;29.88;;;14.50;;
33593;SDS011;19920;52.242;20.940;2023-03-01T16:40:27;27.15;;;14.52;;